Tamworth Airport
YSTW : now visible

Airfield :











YOU CAN JOIN US ON...

 
LOGIN :

Register | Disclaimer

   EN    FR    IT 

 









Legend :    VFR   Marginal VFR   IFR   Intensive IFR   Very Intensive IFR
Visi :
Ceiling :
>= 8 km
>= 3000ft
5 to 8 km
1000 to 3000 ft
1500m to 5 km
500 to 1000 ft
800 to 1500m
200 to 500 ft
< 800m
< 200 ft
Symbols :   Thunderstorms  Fog  Heavy snow  Heavy precipitations  Wind > 20 kt






- Airport Elevation : 1334 ft
- IATA code : TMW


YSTW - Tamworth

CURRENT METAR :
  • 101330Z AUTO 35005KT 9999 // OVC013 16/16 Q1015 RF00.0/019.6

EXPIRED METARs :
  • 101300Z AUTO 35005KT 9999 // OVC013 16/16 Q1015
  • 101230Z AUTO 32004KT 9999 // OVC013 15/15 Q1016 RF00.0/019.6
  • 101200Z AUTO 34004KT 9999 // BKN015 BKN018 15/15 Q1016
  • 101130Z AUTO 36004KT 9999 // NCD 15/15 Q1016 RF00.0/019.6
  • 101100Z AUTO 33003KT 9999 // SCT019 15/15 Q1016 RF00.0/019.6
  • 101030Z AUTO 34006KT 9999 // SCT016 SCT021 SCT029 16/16 Q1016

TAF AMD TAF YSTW
Valid from the 10 at 10:00 until the 11 at 06:00 UTC


101043Z 1010/1106 35010KT 9999 -SHRA BKN018
FM102300 29015G25KT CAVOK
TEMPO 1010/1022 9999 BKN010



MET'MAP, your aeronautical weather chart ! - Copyright ORBIFLY December 2007 - Disclaimer

ORBIFLY MET'MAP TEAM :

Programming & Development : Alexandra Zaïnal
Concept & original design : Baudouin d'Aumeries
Assistance for programming : Marc-Olivier Méhu
Technical & hardware support : Manuel Goepfert

Contact : metmap@orbifly.com




SOURCES & CREDITS :

   NOAA       Earth
Advisory